createdAt,value
2018-12-07T00:01:36.480Z,15.27
2018-12-07T00:04:05.553Z,14.77
2018-12-07T00:06:34.759Z,16.37
2018-12-07T00:09:05.195Z,14.77
2018-12-07T00:11:34.557Z,15.63
2018-12-07T00:14:03.932Z,16.07
2018-12-07T00:16:33.019Z,15.13
2018-12-07T00:19:02.230Z,16.13
2018-12-07T00:21:31.488Z,16.33
2018-12-07T00:24:00.728Z,16.70
2018-12-07T00:26:30.209Z,17.70
2018-12-07T00:28:59.297Z,18.27
2018-12-07T00:31:28.838Z,19.33
2018-12-07T00:33:58.799Z,17.93
2018-12-07T00:36:27.831Z,18.70
2018-12-07T00:38:56.934Z,18.20
2018-12-07T00:41:26.008Z,17.17
2018-12-07T00:43:55.105Z,19.47
2018-12-07T00:46:24.620Z,18.43
2018-12-07T00:48:53.666Z,17.87
2018-12-07T00:51:22.708Z,17.73
2018-12-07T00:53:51.871Z,19.37
2018-12-07T00:56:20.999Z,19.10
2018-12-07T00:58:50.132Z,17.47
2018-12-07T01:01:19.320Z,17.50
2018-12-07T01:03:48.340Z,17.63
2018-12-07T01:06:17.850Z,17.33
2018-12-07T01:08:47.144Z,18.20
2018-12-07T01:11:16.254Z,16.13
2018-12-07T01:13:45.371Z,16.90
2018-12-07T01:16:14.521Z,16.00
2018-12-07T01:18:43.751Z,14.57
2018-12-07T01:21:13.070Z,15.53
2018-12-07T01:23:42.259Z,14.90
2018-12-07T01:26:11.450Z,14.17
2018-12-07T01:28:40.507Z,14.17
2018-12-07T01:31:09.705Z,13.03
2018-12-07T01:33:38.795Z,12.67
2018-12-07T01:36:08.013Z,11.73
2018-12-07T01:38:37.344Z,12.00
2018-12-07T01:41:06.374Z,11.60
2018-12-07T01:43:35.562Z,11.07
2018-12-07T01:46:04.816Z,9.70
2018-12-07T01:48:33.964Z,11.37
2018-12-07T01:51:03.048Z,10.27
2018-12-07T01:53:32.136Z,9.40
2018-12-07T01:56:01.264Z,9.20
2018-12-07T01:58:30.365Z,9.03
2018-12-07T02:00:59.568Z,8.63
2018-12-07T02:03:30.258Z,8.60
2018-12-07T02:05:59.424Z,8.60
2018-12-07T02:08:28.562Z,7.33
2018-12-07T02:10:57.770Z,7.57
2018-12-07T02:13:26.928Z,8.10
2018-12-07T02:15:56.128Z,7.80
2018-12-07T02:18:25.227Z,8.17
2018-12-07T02:20:54.410Z,8.70
2018-12-07T02:23:23.476Z,7.97
2018-12-07T02:25:52.726Z,8.30
2018-12-07T02:28:21.818Z,8.17
2018-12-07T02:30:50.869Z,7.50
2018-12-07T02:33:20.122Z,7.27
2018-12-07T02:35:49.403Z,7.50
2018-12-07T02:38:18.521Z,8.00
2018-12-07T02:40:47.665Z,8.30
2018-12-07T02:43:16.761Z,8.20
2018-12-07T02:45:45.829Z,7.40
2018-12-07T02:48:15.204Z,6.90
2018-12-07T02:50:44.391Z,6.50
2018-12-07T02:53:20.184Z,6.70
2018-12-07T02:55:49.446Z,7.07
2018-12-07T02:58:18.588Z,6.47
2018-12-07T03:00:47.722Z,6.77
2018-12-07T03:03:16.822Z,6.67
2018-12-07T03:05:45.978Z,6.47
2018-12-07T03:08:15.174Z,6.27
2018-12-07T03:10:44.350Z,6.40
2018-12-07T03:13:13.419Z,5.27
2018-12-07T03:15:42.507Z,5.10
2018-12-07T03:18:22.758Z,5.67
2018-12-07T03:20:51.872Z,5.20
2018-12-07T03:23:20.976Z,5.77
2018-12-07T03:25:50.159Z,5.27
2018-12-07T03:28:19.370Z,5.13
2018-12-07T03:30:48.645Z,5.67
2018-12-07T03:33:17.707Z,5.10
2018-12-07T03:35:47.028Z,4.60
2018-12-07T03:38:16.223Z,4.67
2018-12-07T03:40:45.294Z,5.00
2018-12-07T03:43:14.413Z,4.47
2018-12-07T03:45:43.636Z,3.83
2018-12-07T03:48:12.772Z,4.07
2018-12-07T03:50:42.086Z,3.93
2018-12-07T03:53:11.199Z,3.07
2018-12-07T03:55:40.484Z,3.40
2018-12-07T03:58:09.579Z,3.90
2018-12-07T04:00:38.752Z,3.20
2018-12-07T04:03:07.932Z,2.93
2018-12-07T04:05:37.050Z,2.30
2018-12-07T04:08:06.253Z,2.13
2018-12-07T04:10:35.348Z,2.23
2018-12-07T04:13:04.584Z,2.17
2018-12-07T04:15:33.829Z,2.00
2018-12-07T04:18:03.019Z,2.07
2018-12-07T04:20:32.192Z,2.17
2018-12-07T04:23:01.308Z,2.30
2018-12-07T04:25:30.441Z,2.10
2018-12-07T04:27:59.514Z,2.13
2018-12-07T04:30:29.169Z,1.97
2018-12-07T04:32:58.338Z,2.30
2018-12-07T04:35:27.589Z,2.30
2018-12-07T04:37:56.764Z,2.13
2018-12-07T04:40:25.882Z,2.20
2018-12-07T04:42:55.161Z,2.33
2018-12-07T04:45:24.469Z,1.93
2018-12-07T04:47:53.972Z,1.93
2018-12-07T04:50:23.017Z,2.10
2018-12-07T04:52:52.139Z,2.10
2018-12-07T04:55:21.480Z,1.70
2018-12-07T04:57:50.877Z,1.93
2018-12-07T05:00:20.122Z,2.63
2018-12-07T05:02:49.395Z,3.23
2018-12-07T05:05:18.562Z,2.10
2018-12-07T05:07:48.663Z,2.30
2018-12-07T05:10:17.764Z,1.63
2018-12-07T05:12:46.928Z,1.67
2018-12-07T05:15:16.009Z,1.43
2018-12-07T05:17:45.332Z,1.60
2018-12-07T05:20:14.673Z,1.30
2018-12-07T05:22:43.829Z,1.20
2018-12-07T05:25:12.928Z,1.27
2018-12-07T05:27:42.080Z,1.30
2018-12-07T05:30:11.228Z,1.20
2018-12-07T05:32:40.370Z,1.30
2018-12-07T05:35:09.579Z,1.50
2018-12-07T05:37:38.834Z,1.17
2018-12-07T05:40:08.159Z,1.43
2018-12-07T05:42:37.544Z,1.50
2018-12-07T05:45:06.637Z,1.27
2018-12-07T05:47:37.434Z,1.63
2018-12-07T05:50:07.005Z,2.00
2018-12-07T05:52:36.228Z,1.90
2018-12-07T05:55:05.998Z,1.87
2018-12-07T05:57:35.281Z,2.20
2018-12-07T06:00:05.840Z,1.93
2018-12-07T06:02:34.968Z,1.80
2018-12-07T06:05:05.396Z,2.33
2018-12-07T06:07:34.494Z,2.07
2018-12-07T06:10:04.695Z,2.30
2018-12-07T06:12:34.206Z,2.77
2018-12-07T06:15:03.453Z,2.80
2018-12-07T06:17:32.497Z,2.60
2018-12-07T06:20:01.767Z,2.67
2018-12-07T06:22:31.053Z,3.07
2018-12-07T06:25:00.399Z,3.67
2018-12-07T06:27:29.501Z,3.90
2018-12-07T06:29:58.692Z,4.30
2018-12-07T06:32:27.827Z,4.43
2018-12-07T06:34:56.924Z,4.10
2018-12-07T06:37:26.091Z,3.43
2018-12-07T06:39:55.249Z,3.87
2018-12-07T06:42:24.475Z,4.03
2018-12-07T06:44:53.463Z,5.67
2018-12-07T06:47:22.579Z,5.53
2018-12-07T06:49:51.680Z,5.37
2018-12-07T06:52:20.841Z,5.93
2018-12-07T06:54:49.965Z,5.87
2018-12-07T06:57:19.236Z,4.80
2018-12-07T06:59:48.304Z,4.50
2018-12-07T07:02:17.461Z,3.70
2018-12-07T07:04:46.519Z,4.10
2018-12-07T07:07:15.777Z,4.30
2018-12-07T07:09:44.939Z,3.60
2018-12-07T07:12:14.197Z,4.90
2018-12-07T07:14:43.410Z,3.70
2018-12-07T07:17:12.869Z,3.10
2018-12-07T07:19:42.077Z,3.30
2018-12-07T07:22:11.188Z,3.60
2018-12-07T07:24:40.539Z,3.30
2018-12-07T07:27:09.845Z,2.80
2018-12-07T07:29:39.123Z,3.10
2018-12-07T07:32:08.341Z,2.90
2018-12-07T07:34:37.739Z,3.07
2018-12-07T07:37:08.253Z,3.00
2018-12-07T07:39:37.692Z,3.17
2018-12-07T07:42:06.912Z,2.80
2018-12-07T07:44:36.228Z,2.70
2018-12-07T07:47:05.814Z,2.63
2018-12-07T07:49:35.099Z,2.33
2018-12-07T07:52:04.516Z,2.67
2018-12-07T07:54:34.195Z,2.30
2018-12-07T07:57:04.198Z,2.20
2018-12-07T07:59:34.634Z,2.17
2018-12-07T08:02:04.149Z,2.30
2018-12-07T08:04:33.674Z,2.20
2018-12-07T08:07:03.319Z,2.20
2018-12-07T08:09:32.909Z,2.63
2018-12-07T08:12:02.753Z,2.00
2018-12-07T08:14:32.552Z,2.10
2018-12-07T08:17:01.995Z,2.03
2018-12-07T08:19:31.381Z,1.67
2018-12-07T08:22:00.684Z,1.50
2018-12-07T08:24:30.136Z,1.43
2018-12-07T08:26:59.336Z,1.63
2018-12-07T08:29:28.862Z,1.87
2018-12-07T08:31:58.359Z,1.63
2018-12-07T08:34:27.604Z,1.30
2018-12-07T08:36:57.124Z,1.60
2018-12-07T08:39:26.360Z,1.60
2018-12-07T08:41:55.737Z,1.40
2018-12-07T08:44:25.166Z,1.60
2018-12-07T08:46:54.838Z,1.70
2018-12-07T08:49:29.332Z,1.57
2018-12-07T08:51:58.894Z,1.77
2018-12-07T08:54:28.324Z,1.97
2018-12-07T08:56:57.789Z,2.07
2018-12-07T08:59:27.126Z,1.63
2018-12-07T09:01:56.524Z,1.60
2018-12-07T09:04:25.806Z,1.33
2018-12-07T09:06:55.301Z,1.40
2018-12-07T09:09:25.047Z,1.37
2018-12-07T09:11:54.576Z,1.30
2018-12-07T09:14:24.066Z,1.53
2018-12-07T09:16:53.421Z,1.30
2018-12-07T09:19:22.984Z,1.30
2018-12-07T09:21:52.424Z,1.10
2018-12-07T09:24:22.282Z,1.77
2018-12-07T09:26:51.752Z,1.43
2018-12-07T09:29:20.976Z,1.43
2018-12-07T09:31:50.723Z,1.40
2018-12-07T09:34:20.212Z,1.90
2018-12-07T09:36:49.671Z,1.60
2018-12-07T09:39:19.259Z,1.47
2018-12-07T09:41:48.647Z,1.73
2018-12-07T09:44:18.174Z,2.63
2018-12-07T09:46:48.012Z,1.43
2018-12-07T09:49:17.542Z,1.20
2018-12-07T09:51:47.202Z,1.27
2018-12-07T09:54:16.642Z,1.80
2018-12-07T09:56:46.182Z,1.20
2018-12-07T09:59:15.694Z,1.47
2018-12-07T10:01:45.442Z,1.40
2018-12-07T10:04:15.504Z,1.50
2018-12-07T10:06:45.012Z,1.47
2018-12-07T10:09:14.505Z,1.20
2018-12-07T10:11:43.785Z,1.13
2018-12-07T10:14:13.349Z,0.90
2018-12-07T10:16:42.809Z,1.60
2018-12-07T10:19:12.409Z,1.30
2018-12-07T10:21:41.779Z,2.37
2018-12-07T10:24:11.012Z,1.63
2018-12-07T10:26:40.740Z,1.30
2018-12-07T10:29:10.376Z,1.50
2018-12-07T10:31:40.065Z,1.60
2018-12-07T10:34:10.166Z,1.77
2018-12-07T10:36:39.536Z,1.70
2018-12-07T10:39:08.931Z,1.40
2018-12-07T10:41:38.278Z,1.30
2018-12-07T10:44:07.598Z,1.40
2018-12-07T10:46:37.177Z,1.40
2018-12-07T10:49:06.666Z,1.00
2018-12-07T10:51:36.277Z,1.27
2018-12-07T10:54:06.353Z,1.40
2018-12-07T10:56:35.972Z,1.20
2018-12-07T10:59:05.800Z,1.20
2018-12-07T11:01:40.632Z,1.13
2018-12-07T11:04:15.689Z,1.30
2018-12-07T11:06:52.056Z,1.20
2018-12-07T11:09:26.343Z,1.30
2018-12-07T11:12:00.927Z,0.77
2018-12-07T11:14:36.056Z,1.10
2018-12-07T11:17:10.901Z,1.33
2018-12-07T11:19:45.922Z,1.30
2018-12-07T11:22:20.840Z,1.00
2018-12-07T11:24:55.314Z,1.27
2018-12-07T11:27:30.088Z,1.20
2018-12-07T11:32:11.194Z,1.33
2018-12-07T11:34:46.452Z,1.30
2018-12-07T11:37:16.048Z,1.00
2018-12-07T11:39:45.786Z,1.20
2018-12-07T11:42:15.401Z,2.10
2018-12-07T11:44:44.908Z,4.63
2018-12-07T11:47:14.745Z,3.33
2018-12-07T11:49:44.136Z,4.33
2018-12-07T11:52:13.558Z,4.20
2018-12-07T11:54:43.072Z,3.50
2018-12-07T11:57:12.500Z,3.20
2018-12-07T11:59:41.802Z,1.57
2018-12-07T12:02:11.224Z,1.23
2018-12-07T12:04:40.728Z,1.10
2018-12-07T12:07:10.364Z,0.73
2018-12-07T12:09:39.658Z,0.90
2018-12-07T12:12:09.198Z,1.20
2018-12-07T12:14:38.340Z,1.13
2018-12-07T12:17:07.772Z,1.03
2018-12-07T12:19:37.170Z,0.90
2018-12-07T12:22:07.928Z,1.00
2018-12-07T12:24:37.750Z,1.00
2018-12-07T12:27:06.944Z,1.10
2018-12-07T12:29:36.456Z,1.07
2018-12-07T12:32:05.842Z,1.40
2018-12-07T12:34:35.333Z,1.03
2018-12-07T12:37:04.951Z,1.20
2018-12-07T12:39:34.318Z,1.07
2018-12-07T12:42:03.763Z,1.20
2018-12-07T12:49:43.315Z,1.20
2018-12-07T12:52:12.925Z,1.10
2018-12-07T12:54:42.452Z,1.10
2018-12-07T12:57:11.827Z,1.30
2018-12-07T12:59:41.367Z,1.10
2018-12-07T13:02:10.705Z,1.00
2018-12-07T13:04:39.921Z,1.10
2018-12-07T13:07:09.185Z,0.90
2018-12-07T13:09:38.715Z,1.13
2018-12-07T13:12:08.467Z,1.57
2018-12-07T13:14:37.789Z,1.30
2018-12-07T13:17:07.081Z,1.20
2018-12-07T13:19:36.347Z,1.20
2018-12-07T13:22:05.771Z,1.20
2018-12-07T13:24:35.877Z,1.00
2018-12-07T13:27:05.426Z,1.27
2018-12-07T13:29:34.938Z,1.30
2018-12-07T13:32:04.637Z,1.07
2018-12-07T13:34:34.804Z,1.10
2018-12-07T13:37:04.170Z,1.10
2018-12-07T13:39:33.354Z,1.00
2018-12-07T13:42:02.699Z,1.00
2018-12-07T13:44:32.100Z,1.03
2018-12-07T13:47:02.148Z,0.90
2018-12-07T13:49:31.689Z,1.03
2018-12-07T13:52:01.222Z,0.90
2018-12-07T13:54:30.856Z,1.07
2018-12-07T13:57:00.355Z,1.43
2018-12-07T13:59:29.793Z,1.00
2018-12-07T14:01:59.264Z,0.87
2018-12-07T14:04:28.490Z,0.90
2018-12-07T14:06:58.385Z,1.23
2018-12-07T14:09:27.976Z,0.90
2018-12-07T14:11:57.463Z,1.07
2018-12-07T14:14:27.218Z,1.10
2018-12-07T14:16:56.932Z,0.87
2018-12-07T14:19:26.344Z,0.93
2018-12-07T14:21:55.771Z,1.20
2018-12-07T14:24:25.796Z,1.00
2018-12-07T14:26:59.543Z,1.30
2018-12-07T14:29:26.869Z,1.00
2018-12-07T14:31:56.449Z,1.23
2018-12-07T14:34:25.733Z,1.10
2018-12-07T14:36:55.350Z,1.00
2018-12-07T14:39:25.004Z,1.20
2018-12-07T14:41:54.571Z,2.33
2018-12-07T14:44:26.806Z,1.10
2018-12-07T14:46:56.800Z,1.27
2018-12-07T14:49:26.508Z,1.30
2018-12-07T14:51:55.916Z,2.10
2018-12-07T14:54:25.234Z,1.17
2018-12-07T14:56:55.031Z,1.20
2018-12-07T14:59:24.701Z,1.20
2018-12-07T15:01:54.210Z,1.30
2018-12-07T15:04:24.045Z,1.00
2018-12-07T15:06:53.605Z,1.10
2018-12-07T15:09:23.113Z,1.27
2018-12-07T15:11:52.570Z,1.20
2018-12-07T15:14:22.014Z,1.50
2018-12-07T15:16:51.410Z,1.30
2018-12-07T15:19:20.578Z,1.40
2018-12-07T15:21:49.751Z,1.40
2018-12-07T15:24:18.985Z,1.50
2018-12-07T15:26:48.173Z,1.07
2018-12-07T15:29:17.391Z,0.90
2018-12-07T15:31:46.495Z,1.10
2018-12-07T15:34:15.666Z,1.20
2018-12-07T15:36:44.733Z,1.17
2018-12-07T15:39:13.914Z,1.40
2018-12-07T15:41:43.299Z,1.10
2018-12-07T15:44:12.597Z,1.23
2018-12-07T15:46:41.817Z,0.93
2018-12-07T15:49:10.885Z,1.03
2018-12-07T15:51:40.063Z,0.83
2018-12-07T15:54:09.320Z,1.00
2018-12-07T15:56:38.662Z,0.97
2018-12-07T15:59:07.938Z,1.00
2018-12-07T16:01:37.193Z,0.97
2018-12-07T16:04:06.341Z,0.80
2018-12-07T16:06:35.558Z,0.97
2018-12-07T16:09:08.359Z,0.90
2018-12-07T16:11:39.122Z,0.90
2018-12-07T16:14:08.925Z,0.60
2018-12-07T16:16:38.292Z,0.90
2018-12-07T16:19:07.706Z,0.90
2018-12-07T16:21:37.361Z,1.10
2018-12-07T16:24:06.627Z,0.90
2018-12-07T16:26:35.866Z,0.80
2018-12-07T16:29:06.805Z,1.00
2018-12-07T16:31:36.235Z,0.90
2018-12-07T16:34:05.454Z,0.90
2018-12-07T16:36:34.589Z,1.10
2018-12-07T16:39:05.949Z,1.10
2018-12-07T16:41:35.474Z,0.97
2018-12-07T16:44:04.743Z,1.00
2018-12-07T16:46:34.170Z,1.07
2018-12-07T16:49:04.015Z,1.30
2018-12-07T16:51:33.396Z,1.27
2018-12-07T16:54:02.731Z,1.20
2018-12-07T16:56:32.235Z,1.23
2018-12-07T16:59:01.690Z,1.07
2018-12-07T17:01:31.072Z,1.20
2018-12-07T17:04:00.574Z,1.30
2018-12-07T17:06:29.793Z,1.00
2018-12-07T17:08:59.144Z,1.10
2018-12-07T17:11:28.784Z,1.20
2018-12-07T17:13:58.181Z,1.33
2018-12-07T17:16:27.730Z,1.20
2018-12-07T17:18:57.216Z,0.80
2018-12-07T17:21:26.427Z,1.10
2018-12-07T17:23:55.510Z,1.33
2018-12-07T17:26:26.522Z,1.20
2018-12-07T17:28:55.962Z,1.40
2018-12-07T17:31:25.123Z,1.60
2018-12-07T17:33:55.132Z,3.30
2018-12-07T17:36:24.405Z,2.03
2018-12-07T17:38:53.672Z,1.70
2018-12-07T17:41:22.863Z,1.20
2018-12-07T17:43:52.201Z,1.50
2018-12-07T17:46:21.471Z,5.20
2018-12-07T17:48:50.855Z,1.00
2018-12-07T17:51:20.832Z,1.30
2018-12-07T17:53:50.290Z,1.40
2018-12-07T17:56:19.832Z,1.93
2018-12-07T17:58:49.327Z,1.17
2018-12-07T18:01:18.640Z,1.30
2018-12-07T18:03:47.803Z,1.10
2018-12-07T18:06:17.051Z,0.90
2018-12-07T18:08:46.321Z,0.70
2018-12-07T18:11:15.788Z,0.87
2018-12-07T18:13:45.117Z,1.00
2018-12-07T18:16:14.360Z,1.10
2018-12-07T18:18:43.489Z,0.90
2018-12-07T18:21:12.923Z,0.90
2018-12-07T18:23:48.679Z,0.90
2018-12-07T18:26:17.937Z,0.83
2018-12-07T18:28:47.650Z,0.90
2018-12-07T18:31:16.963Z,0.80
2018-12-07T18:33:46.418Z,0.80
2018-12-07T18:36:16.086Z,0.70
2018-12-07T18:38:45.314Z,0.70
2018-12-07T18:41:14.594Z,0.80
2018-12-07T18:43:44.174Z,0.90
2018-12-07T18:46:13.818Z,0.80
2018-12-07T18:48:43.248Z,0.67
2018-12-07T18:51:12.635Z,0.90
2018-12-07T18:53:42.266Z,0.70
2018-12-07T18:56:11.816Z,0.70
2018-12-07T18:58:41.245Z,0.80
2018-12-07T19:01:10.594Z,0.70
2018-12-07T19:03:39.915Z,0.70
2018-12-07T19:06:09.195Z,0.90
2018-12-07T19:08:38.522Z,1.70
2018-12-07T19:11:08.223Z,1.00
2018-12-07T19:13:37.503Z,0.67
2018-12-07T19:16:06.735Z,0.83
2018-12-07T19:18:36.092Z,0.77
2018-12-07T19:21:05.601Z,0.60
2018-12-07T19:23:34.947Z,0.90
2018-12-07T19:26:04.340Z,0.60
2018-12-07T19:28:33.649Z,0.60
2018-12-07T19:31:03.033Z,1.10
2018-12-07T19:33:32.250Z,1.23
2018-12-07T19:36:01.461Z,1.07
2018-12-07T19:38:30.797Z,1.30
2018-12-07T19:41:00.561Z,0.80
2018-12-07T19:43:30.297Z,0.70
2018-12-07T19:45:59.737Z,0.70
2018-12-07T19:48:29.134Z,0.70
2018-12-07T19:51:00.608Z,0.73
2018-12-07T19:53:29.889Z,0.80
2018-12-07T19:55:59.047Z,0.60
2018-12-07T19:58:28.398Z,0.70
2018-12-07T20:00:58.098Z,0.60
2018-12-07T20:03:27.310Z,1.33
2018-12-07T20:05:56.768Z,0.70
2018-12-07T20:08:26.053Z,1.73
2018-12-07T20:10:55.439Z,2.60
2018-12-07T20:13:25.105Z,2.03
2018-12-07T20:15:54.695Z,3.33
2018-12-07T20:18:24.181Z,3.50
2018-12-07T20:20:53.651Z,2.20
2018-12-07T20:23:22.866Z,1.10
2018-12-07T20:25:52.087Z,0.63
2018-12-07T20:28:21.365Z,0.60
2018-12-07T20:30:51.044Z,0.60
2018-12-07T20:33:20.767Z,0.60
2018-12-07T20:35:50.217Z,0.63
2018-12-07T20:38:19.833Z,0.77
2018-12-07T20:40:49.257Z,0.60
2018-12-07T20:43:18.846Z,0.93
2018-12-07T20:45:48.034Z,0.60
2018-12-07T20:48:18.845Z,0.90
2018-12-07T20:50:48.389Z,0.50
2018-12-07T20:53:18.962Z,0.50
2018-12-07T20:55:48.306Z,0.60
2018-12-07T20:58:17.821Z,0.60
2018-12-07T21:00:47.161Z,0.40
2018-12-07T21:03:16.756Z,0.60
2018-12-07T21:08:05.346Z,0.67
2018-12-07T21:11:12.873Z,0.70
2018-12-07T21:14:00.951Z,0.67
2018-12-07T21:17:03.125Z,1.00
2018-12-07T21:19:33.823Z,0.80
2018-12-07T21:22:03.810Z,0.80
2018-12-07T21:24:33.344Z,0.73
2018-12-07T21:27:02.891Z,0.90
2018-12-07T21:29:32.204Z,1.07
2018-12-07T21:32:03.253Z,0.90
2018-12-07T21:34:47.505Z,0.93
2018-12-07T21:37:17.097Z,1.07
2018-12-07T21:39:52.880Z,1.23
2018-12-07T21:42:22.340Z,1.60
2018-12-07T21:44:51.893Z,1.40
2018-12-07T21:50:23.200Z,1.10
2018-12-07T21:52:54.483Z,1.63
2018-12-07T21:55:26.064Z,1.13
2018-12-07T21:57:57.180Z,1.43
2018-12-07T22:00:27.129Z,1.17
2018-12-07T22:03:01.899Z,1.30
2018-12-07T22:05:29.606Z,1.20
2018-12-07T22:08:00.710Z,1.80
2018-12-07T22:10:30.399Z,1.37
2018-12-07T22:13:00.872Z,1.23
2018-12-07T22:15:30.952Z,1.47
2018-12-07T22:18:01.436Z,1.10
2018-12-07T22:20:32.140Z,2.07
2018-12-07T22:23:03.116Z,2.17
2018-12-07T22:25:33.754Z,1.80
2018-12-07T22:28:04.595Z,1.67
2018-12-07T22:30:35.696Z,1.97
2018-12-07T22:33:05.308Z,2.50
2018-12-07T22:35:35.119Z,1.73
2018-12-07T22:38:04.813Z,2.07
2018-12-07T22:40:34.550Z,1.90
2018-12-07T22:43:03.969Z,2.93
2018-12-07T22:45:33.921Z,1.30
2018-12-07T22:48:03.740Z,2.00
2018-12-07T22:50:33.387Z,2.00
2018-12-07T22:53:02.738Z,2.10
2018-12-07T22:55:31.966Z,2.50
2018-12-07T22:58:01.091Z,2.90
2018-12-07T23:00:30.794Z,2.30
2018-12-07T23:02:59.891Z,3.17
2018-12-07T23:05:29.055Z,1.83
2018-12-07T23:07:58.114Z,2.30
2018-12-07T23:10:27.805Z,2.17
2018-12-07T23:12:57.027Z,1.63
2018-12-07T23:15:26.147Z,3.13
2018-12-07T23:17:55.386Z,2.93
2018-12-07T23:20:24.728Z,2.43
2018-12-07T23:22:54.045Z,2.27
2018-12-07T23:25:23.487Z,2.07
2018-12-07T23:27:52.667Z,2.07
2018-12-07T23:30:22.249Z,2.23
2018-12-07T23:32:51.269Z,2.43
2018-12-07T23:35:21.440Z,1.80
2018-12-07T23:37:50.655Z,1.73
2018-12-07T23:40:20.204Z,1.93
2018-12-07T23:42:51.701Z,2.50
2018-12-07T23:45:20.808Z,2.33
2018-12-07T23:47:49.931Z,2.23
2018-12-07T23:50:19.464Z,1.93
2018-12-07T23:52:49.480Z,2.10
2018-12-07T23:55:18.972Z,2.53
2018-12-07T23:57:48.224Z,2.37
